Airfield :
LOGIN :

Register | Disclaimer

   EN    FR    IT 

 










Legend :    VFR   Marginal VFR   IFR   Intensive IFR   Very Intensive IFR
Visi :
Ceiling :
>= 8 km
>= 3000ft
5 to 8 km
1000 to 3000 ft
1500m to 5 km
500 to 1000 ft
800 to 1500m
200 to 500 ft
< 800m
< 200 ft
Symbols :   Thunderstorms  Fog  Heavy snow  Heavy precipitations  Wind > 20 kt
SIGMETs :     Misc.  Thunderstorms  Icing  Turbulence  Mountain Waves  Volcanic Ashes






- Airport Elevation : 580 ft


LFOA - Avord

CURRENT METAR :
  • 071100Z AUTO 36004KT 290V040 9999 SCT042 13/04 Q1019 NOSIG

EXPIRED METARs :
  • 071030Z AUTO VRB02KT 9999 SCT038 12/03 Q1019 NOSIG
  • 071000Z AUTO VRB03KT 9999 FEW035 13/04 Q1018 NOSIG
  • 070930Z AUTO 03005KT 330V090 9999 BKN033 BKN039 12/04 Q1018 NOSIG
  • 070900Z AUTO 05004KT 360V110 9999 FEW034 11/04 Q1018 NOSIG
  • 070830Z AUTO 01005KT 340V050 9999 FEW022 10/04 Q1018 NOSIG

TAF TAF LFOA
Valid from the 07 at 09:00 until the 08 at 09:00 UTC


070800Z 0709/0809 33010KT 9999 SCT015 BKN020 TX15/0714Z TN07/0805Z
BECMG 0711/0714 24005KT CAVOK
TEMPO 0718/0806 13005KT
PROB30
TEMPO 0803/0806 3000 -RA BKN014 BKN030
BECMG 0806/0808 22010KT



MET'MAP, your aeronautical weather chart ! - Copyright ORBIFLY December 2007 - Disclaimer

ORBIFLY MET'MAP TEAM :

Programming & Development : Alexandra Zaïnal
Concept & original design : Baudouin d'Aumeries
Assistance for programming : Marc-Olivier Méhu
Technical & hardware support : Manuel Goepfert

Contact : metmap@orbifly.com




SOURCES & CREDITS :

   NOAA